Time,TemperatureF,DewpointF,PressureIn,WindDirection,WindDirectionDegrees,WindSpeedMPH,WindSpeedGustMPH,Humidity,HourlyPrecipIn,Conditions,Clouds,dailyrainin,SoftwareType,DateUTC
2013-03-03 00:03:00,39.2,26.0,29.84,NNW,338,1.8,1.8,59,0.00,,,0.00,WUHU216HW,2013-03-03 07:03:00,
2013-03-03 00:08:00,39.1,26.3,29.84,NW,315,1.1,3.8,60,0.00,,,0.00,WUHU216HW,2013-03-03 07:08:00,
2013-03-03 00:13:00,38.9,26.1,29.84,WNW,293,1.6,3.8,60,0.00,,,0.00,WUHU216HW,2013-03-03 07:13:00,
2013-03-03 00:18:00,38.7,26.4,29.84,NNW,338,1.8,2.5,61,0.00,,,0.00,WUHU216HW,2013-03-03 07:18:00,
2013-03-03 00:23:00,38.3,26.0,29.84,West,270,2.5,2.5,61,0.00,,,0.00,WUHU216HW,2013-03-03 07:23:00,
2013-03-03 00:28:00,37.8,25.2,29.83,WSW,248,1.1,2.5,60,0.00,,,0.00,WUHU216HW,2013-03-03 07:28:00,
2013-03-03 00:33:00,37.8,25.2,29.82,WSW,248,1.3,1.8,60,0.00,,,0.00,WUHU216HW,2013-03-03 07:33:00,
2013-03-03 00:39:00,37.4,24.8,29.82,SSW,203,1.3,1.6,60,0.00,,,0.00,WUHU216HW,2013-03-03 07:39:00,
2013-03-03 00:44:00,37.3,24.7,29.82,SSW,203,1.8,1.8,60,0.00,,,0.00,WUHU216HW,2013-03-03 07:44:00,
2013-03-03 00:49:00,37.1,24.5,29.82,South,180,1.1,2.2,60,0.00,,,0.00,WUHU216HW,2013-03-03 07:49:00,
2013-03-03 00:54:00,37.1,24.5,29.81,SSE,158,0.9,2.2,60,0.00,,,0.00,WUHU216HW,2013-03-03 07:54:00,
2013-03-03 00:59:00,36.9,24.4,29.81,SSE,158,2.0,2.2,60,0.00,,,0.00,WUHU216HW,2013-03-03 07:59:00,
2013-03-03 01:04:00,36.7,24.6,29.81,SSE,158,1.3,2.2,61,0.00,,,0.00,WUHU216HW,2013-03-03 08:04:00,
2013-03-03 01:09:00,36.5,24.8,29.81,North,0,1.8,1.8,62,0.00,,,0.00,WUHU216HW,2013-03-03 08:09:00,
2013-03-03 01:14:00,36.4,24.6,29.81,North,0,1.8,1.8,62,0.00,,,0.00,WUHU216HW,2013-03-03 08:14:00,
2013-03-03 01:19:00,36.2,24.5,29.81,North,0,0.4,1.8,62,0.00,,,0.00,WUHU216HW,2013-03-03 08:19:00,
2013-03-03 01:24:00,36.0,24.3,29.80,West,270,0.9,1.3,62,0.00,,,0.00,WUHU216HW,2013-03-03 08:24:00,
2013-03-03 01:29:00,35.6,23.9,29.80,SW,225,1.8,1.8,62,0.00,,,0.00,WUHU216HW,2013-03-03 08:29:00,
2013-03-03 01:34:00,35.5,24.1,29.80,WSW,248,1.3,2.5,63,0.00,,,0.00,WUHU216HW,2013-03-03 08:34:00,
2013-03-03 01:39:00,35.3,24.3,29.80,WNW,293,1.8,3.1,64,0.00,,,0.00,WUHU216HW,2013-03-03 08:39:00,
2013-03-03 01:44:00,35.1,24.8,29.79,West,270,1.6,4.0,66,0.00,,,0.00,WUHU216HW,2013-03-03 08:44:00,
2013-03-03 01:49:00,34.9,23.9,29.79,WNW,293,0.7,4.0,64,0.00,,,0.00,WUHU216HW,2013-03-03 08:49:00,
2013-03-03 01:54:00,34.9,23.9,29.79,WSW,248,1.1,2.2,64,0.00,,,0.00,WUHU216HW,2013-03-03 08:54:00,
2013-03-03 02:00:00,34.7,24.8,29.80,NW,315,2.5,2.5,67,0.00,,,0.00,WUHU216HW,2013-03-03 09:00:00,
2013-03-03 02:05:00,34.6,24.7,29.79,NW,315,2.2,5.4,67,0.00,,,0.00,WUHU216HW,2013-03-03 09:05:00,
2013-03-03 02:10:00,34.4,24.1,29.79,WNW,293,1.6,5.4,66,0.00,,,0.00,WUHU216HW,2013-03-03 09:10:00,
2013-03-03 02:15:00,34.4,23.8,29.79,West,270,0.9,1.8,65,0.00,,,0.00,WUHU216HW,2013-03-03 09:15:00,
2013-03-03 02:20:00,34.4,23.8,29.79,SW,225,0.2,1.8,65,0.00,,,0.00,WUHU216HW,2013-03-03 09:20:00,
2013-03-03 02:25:00,34.4,23.4,29.78,SW,225,0.2,1.8,64,0.00,,,0.00,WUHU216HW,2013-03-03 09:25:00,
2013-03-03 02:30:00,34.2,23.2,29.78,WSW,248,0.0,1.1,64,0.00,,,0.00,WUHU216HW,2013-03-03 09:30:00,
2013-03-03 02:35:00,34.2,23.2,29.78,SW,225,0.0,0.0,64,0.00,,,0.00,WUHU216HW,2013-03-03 09:35:00,
2013-03-03 02:40:00,34.2,23.6,29.78,WSW,248,0.0,0.0,65,0.00,,,0.00,WUHU216HW,2013-03-03 09:40:00,
2013-03-03 02:45:00,34.0,23.4,29.78,SW,225,1.1,1.1,65,0.00,,,0.00,WUHU216HW,2013-03-03 09:45:00,
2013-03-03 02:50:00,34.0,23.4,29.77,SSE,158,2.0,3.4,65,0.00,,,0.00,WUHU216HW,2013-03-03 09:50:00,
2013-03-03 02:55:00,33.8,23.2,29.77,SSW,203,1.1,3.4,65,0.00,,,0.00,WUHU216HW,2013-03-03 09:55:00,
2013-03-03 03:01:00,33.8,23.2,29.77,SSW,203,0.0,2.0,65,0.00,,,0.00,WUHU216HW,2013-03-03 10:01:00,
2013-03-03 03:06:00,33.8,23.2,29.77,SSE,158,0.7,1.1,65,0.00,,,0.00,WUHU216HW,2013-03-03 10:06:00,
2013-03-03 03:11:00,33.8,23.6,29.76,SSE,158,0.0,1.1,66,0.00,,,0.00,WUHU216HW,2013-03-03 10:11:00,
2013-03-03 03:16:00,33.7,23.4,29.76,NE,45,1.1,1.1,66,0.00,,,0.00,WUHU216HW,2013-03-03 10:16:00,
2013-03-03 03:21:00,33.5,23.2,29.76,NE,45,0.0,1.1,66,0.00,,,0.00,WUHU216HW,2013-03-03 10:21:00,
2013-03-03 03:26:00,33.5,23.2,29.76,NE,45,0.7,0.7,66,0.00,,,0.00,WUHU216HW,2013-03-03 10:26:00,
2013-03-03 03:31:00,33.5,23.2,29.76,SSE,158,2.7,2.7,66,0.00,,,0.00,WUHU216HW,2013-03-03 10:31:00,
2013-03-03 03:36:00,33.5,23.6,29.75,SSE,158,2.0,2.7,67,0.00,,,0.00,WUHU216HW,2013-03-03 10:36:00,
2013-03-03 03:41:00,33.7,24.1,29.75,South,180,2.7,2.7,68,0.00,,,0.00,WUHU216HW,2013-03-03 10:41:00,
2013-03-03 03:46:00,34.0,24.8,29.75,SSE,158,0.0,2.7,69,0.00,,,0.00,WUHU216HW,2013-03-03 10:46:00,
2013-03-03 03:51:00,34.2,24.7,29.75,NNW,338,1.1,1.8,68,0.00,,,0.00,WUHU216HW,2013-03-03 10:51:00,
2013-03-03 03:56:00,34.2,24.7,29.75,North,0,1.6,1.8,68,0.00,,,0.00,WUHU216HW,2013-03-03 10:56:00,
2013-03-03 04:01:00,34.2,24.3,29.75,NNW,338,0.0,1.8,67,0.00,,,0.00,WUHU216HW,2013-03-03 11:01:00,
2013-03-03 04:06:00,34.2,24.3,29.75,South,180,0.9,1.6,67,0.00,,,0.00,WUHU216HW,2013-03-03 11:06:00,
2013-03-03 04:12:00,34.2,24.7,29.74,North,0,0.7,1.6,68,0.00,,,0.00,WUHU216HW,2013-03-03 11:12:00,
2013-03-03 04:17:00,34.2,24.7,29.74,North,0,0.9,1.3,68,0.00,,,0.00,WUHU216HW,2013-03-03 11:17:00,
2013-03-03 04:22:00,34.2,24.7,29.74,NE,45,0.0,1.1,68,0.00,,,0.00,WUHU216HW,2013-03-03 11:22:00,
2013-03-03 04:27:00,34.2,24.7,29.74,NE,45,0.0,1.1,68,0.00,,,0.00,WUHU216HW,2013-03-03 11:27:00,
2013-03-03 04:32:00,34.2,24.7,29.74,SE,135,1.1,1.8,68,0.00,,,0.00,WUHU216HW,2013-03-03 11:32:00,
2013-03-03 04:37:00,34.2,25.0,29.74,SSW,203,0.0,1.8,69,0.00,,,0.00,WUHU216HW,2013-03-03 11:37:00,
2013-03-03 04:42:00,34.4,25.2,29.74,SSW,203,0.0,0.9,69,0.00,,,0.00,WUHU216HW,2013-03-03 11:42:00,
2013-03-03 04:47:00,34.4,25.2,29.74,SSW,203,0.4,0.4,69,0.00,,,0.00,WUHU216HW,2013-03-03 11:47:00,
2013-03-03 04:52:00,34.6,25.4,29.74,South,180,2.2,2.2,69,0.00,,,0.00,WUHU216HW,2013-03-03 11:52:00,
2013-03-03 04:58:00,34.7,25.9,29.74,South,180,3.6,3.6,70,0.00,,,0.00,WUHU216HW,2013-03-03 11:58:00,
2013-03-03 05:03:00,34.9,26.5,29.73,SSW,203,2.7,4.0,71,0.00,,,0.00,WUHU216HW,2013-03-03 12:03:00,
2013-03-03 05:08:00,35.5,27.0,29.73,South,180,4.7,4.7,71,0.00,,,0.00,WUHU216HW,2013-03-03 12:08:00,
2013-03-03 05:13:00,36.0,27.6,29.73,SSE,158,2.5,4.7,71,0.00,,,0.00,WUHU216HW,2013-03-03 12:13:00,
2013-03-03 05:18:00,36.4,27.5,29.73,South,180,2.5,3.1,70,0.00,,,0.00,WUHU216HW,2013-03-03 12:18:00,
2013-03-03 05:23:00,36.5,27.7,29.73,South,180,1.8,3.1,70,0.00,,,0.00,WUHU216HW,2013-03-03 12:23:00,
2013-03-03 05:28:00,36.7,27.6,29.73,NNW,338,2.7,2.7,69,0.00,,,0.00,WUHU216HW,2013-03-03 12:28:00,
2013-03-03 05:33:00,36.4,26.8,29.73,SW,225,1.1,2.9,68,0.00,,,0.00,WUHU216HW,2013-03-03 12:33:00,
2013-03-03 05:38:00,36.0,26.5,29.73,NW,315,1.1,2.9,68,0.00,,,0.00,WUHU216HW,2013-03-03 12:38:00,
2013-03-03 05:43:00,35.8,26.3,29.72,South,180,1.6,2.0,68,0.00,,,0.00,WUHU216HW,2013-03-03 12:43:00,
2013-03-03 05:48:00,35.6,26.1,29.72,South,180,1.1,1.6,68,0.00,,,0.00,WUHU216HW,2013-03-03 12:48:00,
2013-03-03 05:53:00,35.6,26.1,29.72,South,180,0.9,1.6,68,0.00,,,0.00,WUHU216HW,2013-03-03 12:53:00,
2013-03-03 05:58:00,35.5,25.9,29.72,South,180,0.0,1.6,68,0.00,,,0.00,WUHU216HW,2013-03-03 12:58:00,
2013-03-03 06:03:00,35.5,26.3,29.72,North,0,1.8,1.8,69,0.00,,,0.00,WUHU216HW,2013-03-03 13:03:00,
2013-03-03 06:08:00,35.5,26.3,29.72,NNE,23,0.4,1.8,69,0.00,,,0.00,WUHU216HW,2013-03-03 13:08:00,
2013-03-03 06:14:00,35.5,26.3,29.72,South,180,2.5,2.5,69,0.00,,,0.00,WUHU216HW,2013-03-03 13:14:00,
2013-03-03 06:19:00,35.5,26.3,29.72,SSW,203,2.2,2.9,69,0.00,,,0.00,WUHU216HW,2013-03-03 13:19:00,
2013-03-03 06:24:00,35.6,26.8,29.71,SSW,203,1.8,2.9,70,0.00,,,0.00,WUHU216HW,2013-03-03 13:24:00,
2013-03-03 06:29:00,35.8,27.0,29.72,North,0,1.1,2.2,70,0.00,,,0.00,WUHU216HW,2013-03-03 13:29:00,
2013-03-03 06:34:00,35.8,26.7,29.72,North,0,0.0,2.0,69,0.00,,,0.00,WUHU216HW,2013-03-03 13:34:00,
2013-03-03 06:39:00,35.6,26.5,29.71,North,0,0.4,0.9,69,0.00,,,0.00,WUHU216HW,2013-03-03 13:39:00,
2013-03-03 06:44:00,35.6,26.5,29.71,North,0,0.0,0.9,69,0.00,,,0.00,WUHU216HW,2013-03-03 13:44:00,
2013-03-03 06:49:00,35.6,26.5,29.71,North,0,0.0,1.1,69,0.00,,,0.00,WUHU216HW,2013-03-03 13:49:00,
2013-03-03 06:54:00,35.5,26.3,29.71,SSE,158,1.8,1.8,69,0.00,,,0.00,WUHU216HW,2013-03-03 13:54:00,
2013-03-03 06:59:00,35.5,26.3,29.71,SSE,158,0.9,1.8,69,0.00,,,0.00,WUHU216HW,2013-03-03 13:59:00,
2013-03-03 07:04:00,35.3,26.1,29.71,SSE,158,0.0,1.3,69,0.00,,,0.00,WUHU216HW,2013-03-03 14:04:00,
2013-03-03 07:09:00,35.3,26.5,29.71,North,0,0.4,1.1,70,0.00,,,0.00,WUHU216HW,2013-03-03 14:09:00,
2013-03-03 07:15:00,35.1,26.3,29.71,NNW,338,0.7,1.1,70,0.00,,,0.00,WUHU216HW,2013-03-03 14:15:00,
2013-03-03 07:20:00,35.1,26.3,29.70,WNW,293,0.9,0.9,70,0.00,,,0.00,WUHU216HW,2013-03-03 14:20:00,
2013-03-03 07:25:00,35.3,26.5,29.70,SW,225,1.1,1.1,70,0.00,,,0.00,WUHU216HW,2013-03-03 14:25:00,
2013-03-03 07:30:00,35.3,26.8,29.70,SSW,203,1.1,2.0,71,0.00,,,0.00,WUHU216HW,2013-03-03 14:30:00,
2013-03-03 07:35:00,35.6,27.2,29.70,SW,225,0.0,3.4,71,0.00,,,0.00,WUHU216HW,2013-03-03 14:35:00,
2013-03-03 07:40:00,35.8,27.4,29.70,North,0,0.4,3.4,71,0.00,,,0.00,WUHU216HW,2013-03-03 14:40:00,
2013-03-03 07:45:00,36.0,27.6,29.69,North,0,0.0,1.8,71,0.00,,,0.00,WUHU216HW,2013-03-03 14:45:00,
2013-03-03 07:50:00,36.2,27.4,29.69,SSW,203,1.1,1.1,70,0.00,,,0.00,WUHU216HW,2013-03-03 14:50:00,
2013-03-03 07:55:00,36.4,27.9,29.69,SW,225,1.1,2.2,71,0.00,,,0.00,WUHU216HW,2013-03-03 14:55:00,
2013-03-03 08:00:00,36.7,28.5,29.69,NNE,23,2.0,2.2,72,0.00,,,0.00,WUHU216HW,2013-03-03 15:00:00,
2013-03-03 08:05:00,37.1,28.6,29.69,NNE,23,0.0,2.0,71,0.00,,,0.00,WUHU216HW,2013-03-03 15:05:00,
2013-03-03 08:10:00,37.4,29.0,29.69,NNE,23,0.0,1.1,71,0.00,,,0.00,WUHU216HW,2013-03-03 15:10:00,
2013-03-03 08:15:00,37.8,29.3,29.69,SW,225,1.1,1.1,71,0.00,,,0.00,WUHU216HW,2013-03-03 15:15:00,
2013-03-03 08:21:00,38.3,29.8,29.68,WSW,248,3.1,3.8,71,0.00,,,0.00,WUHU216HW,2013-03-03 15:21:00,
2013-03-03 08:26:00,38.9,30.2,29.68,SSW,203,5.6,5.6,71,0.00,,,0.00,WUHU216HW,2013-03-03 15:26:00,
2013-03-03 08:31:00,39.6,30.6,29.68,SSE,158,2.5,5.6,70,0.00,,,0.00,WUHU216HW,2013-03-03 15:31:00,
2013-03-03 08:36:00,40.5,30.3,29.68,WSW,248,2.5,4.7,67,0.00,,,0.00,WUHU216HW,2013-03-03 15:36:00,
2013-03-03 08:41:00,41.0,30.9,29.67,SW,225,2.2,4.7,67,0.00,,,0.00,WUHU216HW,2013-03-03 15:41:00,
2013-03-03 08:46:00,41.6,31.4,29.67,SSW,203,1.1,4.7,67,0.00,,,0.00,WUHU216HW,2013-03-03 15:46:00,
2013-03-03 08:51:00,42.1,30.8,29.67,South,180,4.7,5.4,64,0.00,,,0.00,WUHU216HW,2013-03-03 15:51:00,
2013-03-03 08:56:00,42.8,31.5,29.67,SSW,203,3.6,7.6,64,0.00,,,0.00,WUHU216HW,2013-03-03 15:56:00,
2013-03-03 09:01:00,43.0,31.2,29.67,SW,225,4.7,7.6,63,0.00,,,0.00,WUHU216HW,2013-03-03 16:01:00,
2013-03-03 09:06:00,43.4,31.6,29.66,SSW,203,5.4,6.9,63,0.00,,,0.00,WUHU216HW,2013-03-03 16:06:00,
2013-03-03 09:11:00,43.7,32.0,29.66,South,180,4.0,5.6,63,0.00,,,0.00,WUHU216HW,2013-03-03 16:11:00,
2013-03-03 09:16:00,44.1,32.0,29.66,South,180,4.3,5.6,62,0.00,,,0.00,WUHU216HW,2013-03-03 16:16:00,
2013-03-03 09:21:00,44.6,32.0,29.66,SSW,203,2.5,4.3,61,0.00,,,0.00,WUHU216HW,2013-03-03 16:21:00,
2013-03-03 09:26:00,45.0,32.4,29.66,SSE,158,2.2,3.4,61,0.00,,,0.00,WUHU216HW,2013-03-03 16:26:00,
2013-03-03 09:32:00,45.2,32.1,29.66,SSE,158,2.2,2.5,60,0.00,,,0.00,WUHU216HW,2013-03-03 16:32:00,
2013-03-03 09:37:00,45.4,31.9,29.65,SSE,158,4.0,4.0,59,0.00,,,0.00,WUHU216HW,2013-03-03 16:37:00,
2013-03-03 09:42:00,45.7,32.2,29.65,ESE,113,4.0,5.8,59,0.00,,,0.00,WUHU216HW,2013-03-03 16:42:00,
2013-03-03 09:47:00,45.7,31.8,29.65,SSE,158,2.7,5.8,58,0.00,,,0.00,WUHU216HW,2013-03-03 16:47:00,
2013-03-03 09:52:00,46.1,31.6,29.65,SSE,158,4.3,4.7,57,0.00,,,0.00,WUHU216HW,2013-03-03 16:52:00,
2013-03-03 09:57:00,46.1,31.6,29.65,SSE,158,2.5,4.7,57,0.00,,,0.00,WUHU216HW,2013-03-03 16:57:00,
2013-03-03 10:02:00,46.3,31.8,29.64,South,180,5.6,5.6,57,0.00,,,0.00,WUHU216HW,2013-03-03 17:02:00,
2013-03-03 10:07:00,46.4,32.0,29.64,SSW,203,6.5,8.5,57,0.00,,,0.00,WUHU216HW,2013-03-03 17:07:00,
2013-03-03 10:12:00,46.4,31.5,29.64,South,180,9.6,10.7,56,0.00,,,0.00,WUHU216HW,2013-03-03 17:12:00,
2013-03-03 10:17:00,46.4,31.5,29.64,SSW,203,8.3,10.7,56,0.00,,,0.00,WUHU216HW,2013-03-03 17:17:00,
2013-03-03 10:22:00,46.4,31.5,29.64,WSW,248,10.5,10.5,56,0.00,,,0.00,WUHU216HW,2013-03-03 17:22:00,
2013-03-03 10:27:00,46.4,31.5,29.63,SSW,203,6.7,10.5,56,0.00,,,0.00,WUHU216HW,2013-03-03 17:27:00,
2013-03-03 10:32:00,46.6,31.2,29.63,SSW,203,6.9,7.6,55,0.00,,,0.00,WUHU216HW,2013-03-03 17:32:00,
2013-03-03 10:37:00,47.2,31.3,29.63,SSW,203,6.5,7.6,54,0.00,,,0.00,WUHU216HW,2013-03-03 17:37:00,
2013-03-03 10:42:00,47.5,31.6,29.62,South,180,6.5,6.5,54,0.00,,,0.00,WUHU216HW,2013-03-03 17:42:00,
2013-03-03 10:48:00,48.2,31.9,29.62,SSW,203,4.5,7.6,53,0.00,,,0.00,WUHU216HW,2013-03-03 17:48:00,
2013-03-03 10:53:00,48.8,31.9,29.62,SSW,203,7.6,7.6,52,0.00,,,0.00,WUHU216HW,2013-03-03 17:53:00,
2013-03-03 10:58:00,49.5,32.6,29.61,SSE,158,3.4,7.6,52,0.00,,,0.00,WUHU216HW,2013-03-03 17:58:00,
2013-03-03 11:03:00,49.9,32.9,29.61,SSW,203,2.2,6.5,52,0.00,,,0.00,WUHU216HW,2013-03-03 18:03:00,
2013-03-03 11:08:00,50.0,32.7,29.62,WNW,293,1.8,4.0,51,0.00,,,0.00,WUHU216HW,2013-03-03 18:08:00,
2013-03-03 11:13:00,50.4,33.0,29.62,NNW,338,1.8,3.1,51,0.00,,,0.00,WUHU216HW,2013-03-03 18:13:00,
2013-03-03 11:18:00,50.4,32.6,29.62,North,0,2.2,2.2,50,0.00,,,0.00,WUHU216HW,2013-03-03 18:18:00,
2013-03-03 11:23:00,50.4,32.0,29.61,NNW,338,1.8,3.8,49,0.00,,,0.00,WUHU216HW,2013-03-03 18:23:00,
2013-03-03 11:28:00,50.4,32.0,29.61,NNE,23,2.2,3.8,49,0.00,,,0.00,WUHU216HW,2013-03-03 18:28:00,
2013-03-03 11:33:00,50.4,31.4,29.61,NNE,23,4.0,4.0,48,0.00,,,0.00,WUHU216HW,2013-03-03 18:33:00,
2013-03-03 11:38:00,50.0,31.7,29.61,NNE,23,4.3,4.7,49,0.00,,,0.00,WUHU216HW,2013-03-03 18:38:00,
2013-03-03 11:43:00,49.7,31.3,29.61,NNE,23,0.4,5.8,49,0.00,,,0.00,WUHU216HW,2013-03-03 18:43:00,
2013-03-03 11:48:00,49.7,31.9,29.61,NNE,23,0.9,5.8,50,0.00,,,0.00,WUHU216HW,2013-03-03 18:48:00,
2013-03-03 11:53:00,49.7,31.9,29.61,ENE,68,2.7,2.7,50,0.00,,,0.00,WUHU216HW,2013-03-03 18:53:00,
2013-03-03 11:58:00,49.7,32.3,29.61,ENE,68,1.8,4.0,51,0.00,,,0.00,WUHU216HW,2013-03-03 18:58:00,
2013-03-03 12:03:00,49.5,32.1,29.61,ENE,68,3.6,6.9,51,0.00,,,0.00,WUHU216HW,2013-03-03 19:03:00,
2013-03-03 12:09:00,49.7,32.3,29.61,NNE,23,5.4,6.9,51,0.00,,,0.00,WUHU216HW,2013-03-03 19:09:00,
2013-03-03 12:14:00,49.9,32.5,29.61,NE,45,4.7,5.8,51,0.00,,,0.00,WUHU216HW,2013-03-03 19:14:00,
2013-03-03 12:19:00,50.2,32.4,29.60,NNE,23,3.4,5.4,50,0.00,,,0.00,WUHU216HW,2013-03-03 19:19:00,
2013-03-03 12:24:00,50.8,32.9,29.60,NNE,23,3.1,4.7,50,0.00,,,0.00,WUHU216HW,2013-03-03 19:24:00,
2013-03-03 12:29:00,50.9,33.0,29.59,NNE,23,2.2,5.1,50,0.00,,,0.00,WUHU216HW,2013-03-03 19:29:00,
2013-03-03 12:34:00,51.5,32.9,29.59,NE,45,3.8,5.4,49,0.00,,,0.00,WUHU216HW,2013-03-03 19:34:00,
2013-03-03 12:39:00,52.0,32.9,29.59,ENE,68,3.4,5.4,48,0.00,,,0.00,WUHU216HW,2013-03-03 19:39:00,
2013-03-03 12:44:00,52.2,32.5,29.59,NE,45,3.8,5.4,47,0.00,,,0.00,WUHU216HW,2013-03-03 19:44:00,
2013-03-03 12:49:00,52.2,32.5,29.58,NNE,23,4.3,4.5,47,0.00,,,0.00,WUHU216HW,2013-03-03 19:49:00,
2013-03-03 12:54:00,52.2,32.0,29.58,NNE,23,2.7,6.5,46,0.00,,,0.00,WUHU216HW,2013-03-03 19:54:00,
2013-03-03 12:59:00,52.2,32.5,29.58,NE,45,2.9,6.5,47,0.00,,,0.00,WUHU216HW,2013-03-03 19:59:00,
2013-03-03 13:04:00,52.7,32.4,29.57,NNE,23,4.5,6.9,46,0.00,,,0.00,WUHU216HW,2013-03-03 20:04:00,
2013-03-03 13:09:00,53.1,32.8,29.57,ENE,68,4.7,6.9,46,0.00,,,0.00,WUHU216HW,2013-03-03 20:09:00,
2013-03-03 13:14:00,53.6,33.2,29.57,NE,45,4.7,6.9,46,0.00,,,0.00,WUHU216HW,2013-03-03 20:14:00,
2013-03-03 13:19:00,54.2,33.1,29.56,NE,45,7.4,8.5,45,0.00,,,0.00,WUHU216HW,2013-03-03 20:19:00,
2013-03-03 13:24:00,54.5,33.5,29.55,NE,45,6.3,8.5,45,0.00,,,0.00,WUHU216HW,2013-03-03 20:24:00,
2013-03-03 13:30:00,55.1,33.4,29.54,NNE,23,3.4,8.3,44,0.00,,,0.00,WUHU216HW,2013-03-03 20:30:00,
2013-03-03 13:35:00,55.3,33.0,29.54,North,0,4.7,8.9,43,0.00,,,0.00,WUHU216HW,2013-03-03 20:35:00,
2013-03-03 13:40:00,55.6,33.9,29.54,SE,135,1.8,8.9,44,0.00,,,0.00,WUHU216HW,2013-03-03 20:40:00,
2013-03-03 13:45:00,56.0,33.7,29.53,ENE,68,6.3,7.6,43,0.00,,,0.00,WUHU216HW,2013-03-03 20:45:00,
2013-03-03 13:50:00,55.8,33.5,29.53,ENE,68,7.8,8.9,43,0.00,,,0.00,WUHU216HW,2013-03-03 20:50:00,
2013-03-03 13:55:00,55.8,33.5,29.53,NNE,23,7.6,8.9,43,0.00,,,0.00,WUHU216HW,2013-03-03 20:55:00,
2013-03-03 14:00:00,56.5,33.6,29.53,North,0,8.1,8.1,42,0.00,,,0.00,WUHU216HW,2013-03-03 21:00:00,
2013-03-03 14:05:00,57.1,33.6,29.53,NE,45,7.2,9.8,41,0.00,,,0.00,WUHU216HW,2013-03-03 21:05:00,
2013-03-03 14:10:00,56.5,33.0,29.52,NNE,23,8.1,9.8,41,0.00,,,0.00,WUHU216HW,2013-03-03 21:10:00,
2013-03-03 14:15:00,55.6,33.3,29.52,North,0,7.6,9.6,43,0.00,,,0.00,WUHU216HW,2013-03-03 21:15:00,
2013-03-03 14:20:00,54.9,33.2,29.52,NNE,23,11.4,12.1,44,0.00,,,0.00,WUHU216HW,2013-03-03 21:20:00,
2013-03-03 14:25:00,54.2,33.1,29.52,NNE,23,11.4,12.1,45,0.00,,,0.00,WUHU216HW,2013-03-03 21:25:00,
2013-03-03 14:31:00,53.6,33.2,29.53,North,0,9.8,12.5,46,0.00,,,0.00,WUHU216HW,2013-03-03 21:31:00,
2013-03-03 14:36:00,52.2,33.6,29.56,NW,315,30.2,30.2,49,0.00,,,0.00,WUHU216HW,2013-03-03 21:36:00,
2013-03-03 14:41:00,47.0,32.5,29.56,NW,315,24.4,35.3,57,0.00,,,0.00,WUHU216HW,2013-03-03 21:41:00,
2013-03-03 14:46:00,44.1,33.5,29.58,NNW,338,23.9,35.3,66,0.00,,,0.00,WUHU216HW,2013-03-03 21:46:00,
2013-03-03 14:51:00,41.0,33.0,29.61,NW,315,19.5,31.5,73,0.00,,,0.00,WUHU216HW,2013-03-03 21:51:00,
2013-03-03 14:56:00,39.2,32.7,29.61,NW,315,17.2,19.5,77,0.00,,,0.00,WUHU216HW,2013-03-03 21:56:00,
2013-03-03 15:01:00,37.8,32.2,29.61,NNW,338,29.5,29.5,80,0.00,,,0.00,WUHU216HW,2013-03-03 22:01:00,
2013-03-03 15:06:00,36.5,31.2,29.62,NNW,338,30.4,39.4,81,0.00,,,0.00,WUHU216HW,2013-03-03 22:06:00,
2013-03-03 15:11:00,35.6,31.2,29.64,NNW,338,24.6,39.4,84,0.00,,,0.00,WUHU216HW,2013-03-03 22:11:00,
2013-03-03 15:16:00,35.1,31.0,29.65,NNW,338,26.2,35.6,85,0.00,,,0.00,WUHU216HW,2013-03-03 22:16:00,
2013-03-03 15:21:00,34.4,30.0,29.65,NW,315,34.7,35.6,84,0.00,,,0.00,WUHU216HW,2013-03-03 22:21:00,
2013-03-03 15:26:00,33.1,29.3,29.66,NNW,338,39.1,42.7,86,0.00,,,0.00,WUHU216HW,2013-03-03 22:26:00,
2013-03-03 15:31:00,32.4,29.3,29.66,North,0,28.4,42.7,88,0.00,,,0.00,WUHU216HW,2013-03-03 22:31:00,
2013-03-03 15:37:00,32.2,29.4,29.67,NNW,338,28.0,36.7,89,0.00,,,0.00,WUHU216HW,2013-03-03 22:37:00,
2013-03-03 22:34:00,25.6,22.5,29.81,WSW,248,0.0,0.0,88,0.00,,,0.00,WUHU216HW,2013-03-04 05:34:00,
2013-03-03 22:39:00,25.6,22.5,29.82,SW,225,0.0,0.0,88,0.00,,,0.00,WUHU216HW,2013-03-04 05:39:00,
2013-03-03 22:44:00,25.7,22.7,29.81,SW,225,0.0,0.0,88,0.00,,,0.00,WUHU216HW,2013-03-04 05:44:00,
2013-03-03 22:49:00,25.9,22.9,29.81,WSW,248,0.0,0.0,88,0.00,,,0.00,WUHU216HW,2013-03-04 05:49:00,
2013-03-03 22:54:00,25.9,22.9,29.81,WNW,293,0.0,0.0,88,0.00,,,0.00,WUHU216HW,2013-03-04 05:54:00,
2013-03-03 22:59:00,25.9,22.6,29.81,WNW,293,0.0,0.0,87,0.00,,,0.00,WUHU216HW,2013-03-04 05:59:00,
2013-03-03 23:04:00,26.1,22.4,29.82,WSW,248,0.0,0.0,86,0.00,,,0.00,WUHU216HW,2013-03-04 06:04:00,
2013-03-03 23:10:00,26.1,22.1,29.82,West,270,0.0,0.0,85,0.00,,,0.00,WUHU216HW,2013-03-04 06:10:00,
2013-03-03 23:15:00,26.1,22.1,29.83,WNW,293,0.0,0.0,85,0.00,,,0.00,WUHU216HW,2013-03-04 06:15:00,
2013-03-03 23:20:00,25.9,22.0,29.83,NW,315,0.0,0.0,85,0.00,,,0.00,WUHU216HW,2013-03-04 06:20:00,
2013-03-03 23:25:00,25.7,21.5,29.83,WNW,293,0.0,0.0,84,0.00,,,0.00,WUHU216HW,2013-03-04 06:25:00,
2013-03-03 23:30:00,25.7,21.5,29.83,NNW,338,0.0,0.0,84,0.00,,,0.00,WUHU216HW,2013-03-04 06:30:00,
2013-03-03 23:35:00,25.6,20.8,29.84,NW,315,0.0,0.0,82,0.00,,,0.00,WUHU216HW,2013-03-04 06:35:00,
2013-03-03 23:40:00,25.6,20.8,29.85,West,270,0.0,0.0,82,0.00,,,0.00,WUHU216HW,2013-03-04 06:40:00,
2013-03-03 23:45:00,25.4,20.3,29.85,NNW,338,0.0,0.0,81,0.00,,,0.00,WUHU216HW,2013-03-04 06:45:00,
2013-03-03 23:50:00,25.6,20.3,29.86,NW,315,0.0,0.0,80,0.00,,,0.00,WUHU216HW,2013-03-04 06:50:00,
2013-03-03 23:55:00,25.6,20.0,29.86,NW,315,0.0,0.0,79,0.00,,,0.00,WUHU216HW,2013-03-04 06:55:00,